Time;durP1;ratioP1;P1;durP2;ratioP2;P2;SDS_P1;SDS_P2;PMS_P1;PMS_P2;Temp;Humidity;BMP_temperature;BMP_pressure;BME280_temperature;BME280_humidity;BME280_pressure;Samples;Min_cycle;Max_cycle;Signal;HPM_P1;HPM_P2
2023/12/09 00:01:31;;;;;;;25.08;2.75;;;6.90;99.90;;;;;;4996849;28;20491;-91
2023/12/09 00:03:57;;;;;;;18.27;3.55;;;6.90;99.90;;;;;;4997048;28;20033;-90
2023/12/09 00:06:23;;;;;;;20.38;3.33;;;6.80;99.90;;;;;;4996822;28;20045;-90
2023/12/09 00:08:50;;;;;;;18.48;3.25;;;6.80;99.90;;;;;;4996372;28;20018;-90
2023/12/09 00:11:16;;;;;;;20.15;2.85;;;6.70;99.90;;;;;;4996710;28;20088;-90
2023/12/09 00:13:42;;;;;;;17.05;3.55;;;6.70;99.90;;;;;;4996770;28;20038;-91
2023/12/09 00:16:08;;;;;;;17.23;3.85;;;6.60;99.90;;;;;;4996635;28;20022;-90
2023/12/09 00:18:34;;;;;;;17.48;2.10;;;6.60;99.90;;;;;;4996272;28;20038;-89
2023/12/09 00:20:59;;;;;;;17.88;2.55;;;6.50;99.90;;;;;;4996871;28;20018;-90
2023/12/09 00:23:25;;;;;;;18.80;2.60;;;6.50;99.90;;;;;;4996688;28;20025;-90
2023/12/09 00:25:51;;;;;;;19.90;2.53;;;6.50;99.90;;;;;;4997402;28;20568;-90
2023/12/09 00:28:16;;;;;;;16.98;2.67;;;6.50;99.90;;;;;;4999954;28;20037;-90
2023/12/09 00:30:42;;;;;;;17.52;2.38;;;6.50;99.90;;;;;;5002232;28;20102;-90
2023/12/09 00:33:08;;;;;;;18.92;2.92;;;6.50;99.90;;;;;;5003777;28;20052;-90
2023/12/09 00:35:34;;;;;;;18.65;2.67;;;6.50;99.90;;;;;;4998137;28;20121;-90
2023/12/09 00:38:00;;;;;;;13.38;2.20;;;6.60;99.90;;;;;;4997146;28;20018;-90
2023/12/09 00:40:25;;;;;;;10.05;2.03;;;6.60;99.90;;;;;;4997965;28;20046;-92
2023/12/09 00:42:51;;;;;;;13.45;3.05;;;6.50;99.90;;;;;;4998300;28;20028;-91
2023/12/09 00:45:17;;;;;;;19.17;2.55;;;6.60;99.90;;;;;;4996519;28;20073;-91
2023/12/09 00:47:42;;;;;;;17.75;2.72;;;6.60;99.90;;;;;;4996078;28;20057;-91
2023/12/09 00:50:09;;;;;;;18.75;2.60;;;6.50;99.90;;;;;;4995757;28;20022;-91
2023/12/09 00:52:34;;;;;;;17.25;3.03;;;6.60;99.90;;;;;;4995557;28;20044;-89
2023/12/09 00:55:00;;;;;;;17.27;3.30;;;6.60;99.90;;;;;;4996224;28;20025;-90
2023/12/09 00:57:26;;;;;;;17.67;2.88;;;6.50;99.90;;;;;;5012815;28;20057;-89
2023/12/09 00:59:52;;;;;;;20.55;3.38;;;6.60;99.90;;;;;;4995378;28;20026;-90
2023/12/09 01:02:18;;;;;;;17.27;2.83;;;6.60;99.90;;;;;;4996416;28;20022;-90
2023/12/09 01:04:44;;;;;;;15.52;2.72;;;6.50;99.90;;;;;;4997659;28;20033;-90
2023/12/09 01:07:10;;;;;;;17.90;3.30;;;6.50;99.90;;;;;;5001765;28;20053;-89
2023/12/09 01:09:35;;;;;;;22.00;3.88;;;6.50;99.90;;;;;;5007645;28;20232;-91
2023/12/09 01:12:02;;;;;;;20.30;3.15;;;6.50;99.90;;;;;;5008806;28;20022;-88
2023/12/09 01:14:27;;;;;;;29.00;3.85;;;6.50;99.90;;;;;;4999786;28;20049;-91
2023/12/09 01:16:53;;;;;;;30.98;3.05;;;6.50;99.90;;;;;;4998218;28;20033;-89
2023/12/09 01:19:19;;;;;;;20.10;4.07;;;6.50;99.90;;;;;;4998383;28;20053;-89
2023/12/09 01:21:44;;;;;;;21.90;3.17;;;6.50;99.90;;;;;;4998651;28;20030;-89
2023/12/09 01:24:10;;;;;;;14.20;3.10;;;6.40;99.90;;;;;;4986254;28;20092;-88
2023/12/09 01:26:36;;;;;;;19.83;3.92;;;6.50;99.90;;;;;;4999983;28;20041;-88
2023/12/09 01:29:03;;;;;;;23.65;4.15;;;6.50;99.90;;;;;;4999123;28;20033;-88
2023/12/09 01:31:29;;;;;;;18.17;3.10;;;6.40;99.90;;;;;;4998752;28;20037;-90
2023/12/09 01:33:55;;;;;;;21.33;2.63;;;6.50;99.90;;;;;;5000249;28;20030;-93
2023/12/09 01:36:21;;;;;;;10.30;2.78;;;6.50;99.90;;;;;;4998870;28;20574;-90
2023/12/09 01:38:47;;;;;;;29.70;5.85;;;6.60;99.90;;;;;;4997286;28;20022;-90
2023/12/09 01:41:13;;;;;;;19.73;4.13;;;6.50;99.90;;;;;;4996019;28;20066;-91
2023/12/09 01:43:38;;;;;;;21.80;3.47;;;6.60;99.90;;;;;;4996032;28;20476;-90
2023/12/09 01:46:06;;;;;;;24.08;3.95;;;6.60;99.90;;;;;;4996161;28;20057;-90
2023/12/09 01:48:36;;;;;;;10.45;2.60;;;6.60;99.90;;;;;;4995404;28;20113;-90
2023/12/09 01:51:04;;;;;;;19.80;3.58;;;6.60;99.90;;;;;;4995593;28;20034;-90
2023/12/09 01:53:30;;;;;;;33.63;4.15;;;6.60;99.90;;;;;;4995670;28;20120;-90
2023/12/09 01:56:01;;;;;;;21.63;2.60;;;6.50;99.90;;;;;;4976007;28;20050;-90
2023/12/09 01:58:27;;;;;;;24.30;3.33;;;6.50;99.90;;;;;;4993104;28;20031;-90
2023/12/09 02:00:54;;;;;;;35.17;4.65;;;6.50;99.90;;;;;;4992985;28;20092;-90
2023/12/09 02:03:19;;;;;;;18.35;2.92;;;6.40;99.90;;;;;;4992340;28;20030;-89
2023/12/09 02:05:45;;;;;;;21.65;3.30;;;6.40;99.90;;;;;;4992395;28;20105;-91
2023/12/09 02:08:14;;;;;;;23.70;3.75;;;6.40;99.90;;;;;;4992477;28;20081;-91
2023/12/09 02:10:40;;;;;;;21.25;3.78;;;6.40;99.90;;;;;;4992627;28;20019;-89
2023/12/09 02:13:17;;;;;;;21.27;3.75;;;6.30;99.90;;;;;;4992133;28;20401;-89
2023/12/09 02:16:06;;;;;;;17.17;3.50;;;6.30;99.90;;;;;;4992065;28;20080;-90
2023/12/09 02:18:34;;;;;;;15.00;3.38;;;6.30;99.90;;;;;;4994109;28;20034;-90
2023/12/09 02:21:00;;;;;;;18.75;4.22;;;6.20;99.90;;;;;;4996238;28;20077;-90
2023/12/09 02:23:26;;;;;;;20.77;4.35;;;6.20;99.90;;;;;;4996093;28;20392;-90
2023/12/09 02:25:56;;;;;;;30.25;4.85;;;6.20;99.90;;;;;;4996597;28;20037;-91
2023/12/09 02:28:27;;;;;;;29.00;4.88;;;6.20;99.90;;;;;;4995735;28;20026;-91
2023/12/09 02:31:03;;;;;;;15.13;4.43;;;6.10;99.90;;;;;;4995602;28;20065;-91
2023/12/09 02:33:30;;;;;;;23.10;4.68;;;6.10;99.90;;;;;;4995819;28;20034;-90
2023/12/09 02:35:59;;;;;;;19.00;3.95;;;6.10;99.90;;;;;;4995702;28;20084;-90
2023/12/09 02:38:28;;;;;;;23.65;3.80;;;6.10;99.90;;;;;;4995983;28;20117;-91
2023/12/09 02:40:55;;;;;;;27.02;5.10;;;6.20;99.90;;;;;;4996012;28;20046;-91
2023/12/09 02:43:20;;;;;;;17.02;3.78;;;6.10;99.90;;;;;;4996628;28;20031;-89
2023/12/09 02:45:46;;;;;;;20.50;3.45;;;6.10;99.90;;;;;;4996154;28;20029;-90
2023/12/09 02:48:12;;;;;;;19.73;4.43;;;6.10;99.90;;;;;;4994663;28;20081;-90
2023/12/09 02:50:38;;;;;;;29.98;5.03;;;6.10;99.90;;;;;;4995614;28;20030;-89
2023/12/09 02:53:03;;;;;;;48.70;6.63;;;6.10;99.90;;;;;;4995391;28;20408;-91
2023/12/09 02:55:30;;;;;;;15.60;3.90;;;6.20;99.90;;;;;;4995911;28;20054;-91
2023/12/09 02:57:56;;;;;;;17.58;4.93;;;6.10;99.90;;;;;;4995447;28;20120;-89
2023/12/09 03:00:21;;;;;;;21.05;5.18;;;6.10;99.90;;;;;;4995553;28;20053;-90
2023/12/09 03:02:47;;;;;;;26.77;5.25;;;6.10;99.90;;;;;;4995627;28;20024;-90
2023/12/09 03:05:13;;;;;;;30.67;5.90;;;6.10;99.90;;;;;;4995490;28;20023;-89
2023/12/09 03:07:38;;;;;;;16.83;3.45;;;6.20;99.90;;;;;;4995924;28;20026;-89
2023/12/09 03:10:04;;;;;;;23.98;4.97;;;6.10;99.90;;;;;;4997055;28;20076;-89
2023/12/09 03:12:31;;;;;;;31.13;6.20;;;6.10;99.90;;;;;;4996187;28;20033;-90
2023/12/09 03:14:57;;;;;;;18.33;4.82;;;6.20;99.90;;;;;;4995084;28;20039;-89
2023/12/09 03:17:24;;;;;;;28.52;5.22;;;6.10;99.90;;;;;;4995239;28;20404;-89
2023/12/09 03:19:50;;;;;;;18.58;5.03;;;6.20;99.90;;;;;;4995090;28;20037;-89
2023/12/09 03:22:15;;;;;;;27.73;6.32;;;6.20;99.90;;;;;;4994842;28;20031;-90
2023/12/09 03:24:44;;;;;;;24.08;4.75;;;6.10;99.90;;;;;;4994989;28;20037;-90
2023/12/09 03:27:10;;;;;;;22.85;5.93;;;6.10;99.90;;;;;;4995094;28;20026;-89
2023/12/09 03:29:36;;;;;;;28.95;6.43;;;6.10;99.90;;;;;;4993880;28;20030;-91
2023/12/09 03:32:02;;;;;;;28.60;6.85;;;6.10;99.90;;;;;;4994998;28;20022;-90
2023/12/09 03:34:28;;;;;;;26.67;6.95;;;6.10;99.90;;;;;;4995420;28;20114;-90
2023/12/09 03:36:53;;;;;;;29.10;7.80;;;6.10;99.90;;;;;;4995554;28;20049;-88
2023/12/09 03:39:19;;;;;;;26.77;6.10;;;6.10;99.90;;;;;;5004438;28;20034;-89
2023/12/09 03:41:45;;;;;;;30.05;6.07;;;6.10;99.90;;;;;;5010105;28;20077;-89
2023/12/09 03:44:11;;;;;;;28.17;6.00;;;6.10;99.90;;;;;;4992432;28;20483;-89
2023/12/09 03:46:37;;;;;;;24.23;6.00;;;6.10;99.90;;;;;;4994511;28;20034;-89
2023/12/09 03:49:02;;;;;;;27.00;7.25;;;6.10;99.90;;;;;;4994395;28;20365;-89
2023/12/09 03:51:28;;;;;;;23.40;6.13;;;6.20;99.90;;;;;;4994210;28;20023;-89
2023/12/09 03:53:54;;;;;;;30.65;6.10;;;6.20;99.90;;;;;;4994186;28;20129;-89
2023/12/09 03:56:23;;;;;;;28.20;6.80;;;6.20;99.90;;;;;;4994293;28;20491;-90
2023/12/09 03:58:49;;;;;;;24.75;5.40;;;6.20;99.90;;;;;;4995231;28;20022;-90
2023/12/09 04:01:14;;;;;;;20.73;6.05;;;6.30;99.90;;;;;;4994244;28;20356;-90
2023/12/09 04:03:40;;;;;;;23.05;5.43;;;6.20;99.90;;;;;;4993816;28;20034;-90
2023/12/09 04:06:06;;;;;;;14.93;4.90;;;6.30;99.90;;;;;;4993947;28;20022;-89
2023/12/09 04:08:32;;;;;;;21.77;6.38;;;6.20;99.90;;;;;;4994070;28;20121;-90
2023/12/09 04:10:58;;;;;;;16.58;4.90;;;6.20;99.90;;;;;;4994491;28;20073;-89
2023/12/09 04:13:24;;;;;;;27.67;6.30;;;6.20;99.90;;;;;;4994563;28;20563;-89
2023/12/09 04:15:50;;;;;;;22.55;5.35;;;6.20;99.90;;;;;;4994156;28;20053;-89
2023/12/09 04:18:17;;;;;;;24.20;5.57;;;6.20;99.90;;;;;;4994116;28;20109;-90
2023/12/09 04:20:43;;;;;;;13.85;4.70;;;6.20;99.90;;;;;;4994175;28;20022;-90
2023/12/09 04:23:08;;;;;;;15.32;4.13;;;6.30;99.90;;;;;;4993986;28;20037;-90
2023/12/09 04:25:35;;;;;;;21.13;4.70;;;6.30;99.90;;;;;;4993972;28;20434;-89
2023/12/09 04:28:01;;;;;;;25.23;5.80;;;6.30;99.90;;;;;;4993661;28;20030;-90
2023/12/09 04:30:27;;;;;;;22.92;5.70;;;6.30;99.90;;;;;;4993768;28;20026;-89
2023/12/09 04:32:52;;;;;;;18.42;5.03;;;6.30;99.90;;;;;;4993972;28;20026;-89
2023/12/09 04:35:18;;;;;;;15.57;4.47;;;6.30;99.90;;;;;;4994133;28;20435;-91
2023/12/09 04:37:44;;;;;;;18.42;4.38;;;6.40;99.90;;;;;;4994439;28;20053;-90
2023/12/09 04:40:10;;;;;;;23.95;4.40;;;6.40;99.90;;;;;;4995604;28;20101;-90
2023/12/09 04:42:39;;;;;;;11.23;5.10;;;6.40;99.90;;;;;;4996748;28;20053;-89
2023/12/09 04:45:06;;;;;;;23.98;4.22;;;6.40;99.90;;;;;;4994764;28;20022;-89
2023/12/09 04:47:32;;;;;;;24.30;5.68;;;6.40;99.90;;;;;;4994969;28;20057;-89
2023/12/09 04:49:58;;;;;;;19.90;4.43;;;6.40;99.90;;;;;;4995265;28;20026;-89
2023/12/09 04:52:24;;;;;;;19.63;4.80;;;6.40;99.90;;;;;;4995046;28;20503;-89
2023/12/09 04:54:50;;;;;;;15.60;3.90;;;6.40;99.90;;;;;;4996028;28;20065;-89
2023/12/09 04:57:15;;;;;;;17.75;4.40;;;6.30;99.90;;;;;;4995454;28;20027;-89
2023/12/09 04:59:42;;;;;;;18.25;4.22;;;6.30;99.90;;;;;;4994874;28;20068;-89
2023/12/09 05:02:08;;;;;;;17.67;4.05;;;6.30;99.90;;;;;;4994490;28;20030;-90
2023/12/09 05:04:34;;;;;;;22.85;3.80;;;6.30;99.90;;;;;;4993811;28;20026;-91
2023/12/09 05:07:00;;;;;;;13.95;3.63;;;6.30;99.90;;;;;;4993688;28;20083;-90
2023/12/09 05:09:25;;;;;;;14.15;3.22;;;6.30;99.90;;;;;;4993463;28;20479;-90
2023/12/09 05:11:51;;;;;;;17.45;3.60;;;6.40;99.90;;;;;;4993282;28;20089;-90
2023/12/09 05:14:17;;;;;;;17.27;3.40;;;6.40;99.90;;;;;;4993227;28;20042;-90
2023/12/09 05:16:43;;;;;;;16.60;4.63;;;6.40;99.90;;;;;;4993859;28;20036;-90
2023/12/09 05:19:08;;;;;;;20.95;3.72;;;6.40;99.90;;;;;;4993485;28;20033;-89
2023/12/09 05:21:34;;;;;;;16.42;4.82;;;6.40;99.90;;;;;;4993936;28;20026;-89
2023/12/09 05:24:00;;;;;;;18.23;4.20;;;6.40;99.90;;;;;;4994577;28;20026;-91
2023/12/09 05:26:27;;;;;;;18.27;3.60;;;6.40;99.90;;;;;;4994273;28;20030;-90
2023/12/09 05:28:54;;;;;;;14.55;3.28;;;6.40;99.90;;;;;;4993004;28;20037;-89
2023/12/09 05:31:20;;;;;;;18.83;3.50;;;6.40;99.90;;;;;;4992697;28;20019;-88
2023/12/09 05:33:46;;;;;;;16.42;3.53;;;6.50;99.90;;;;;;4992501;28;20133;-90
2023/12/09 05:36:12;;;;;;;14.60;3.40;;;6.50;99.90;;;;;;4992560;28;20488;-89
2023/12/09 05:38:38;;;;;;;13.55;3.65;;;6.50;99.90;;;;;;4993015;28;20066;-89
2023/12/09 05:41:05;;;;;;;15.45;3.53;;;6.50;99.90;;;;;;4992624;28;20046;-89
2023/12/09 05:43:31;;;;;;;13.93;2.83;;;6.60;99.90;;;;;;4992343;28;20038;-90
2023/12/09 05:45:56;;;;;;;15.07;2.65;;;6.60;99.90;;;;;;4992393;28;20033;-89
2023/12/09 05:48:22;;;;;;;15.73;2.80;;;6.60;99.90;;;;;;4992384;28;20034;-90
2023/12/09 05:50:48;;;;;;;13.15;2.70;;;6.60;99.90;;;;;;4992521;28;20077;-89
2023/12/09 05:53:14;;;;;;;9.40;2.65;;;6.60;99.90;;;;;;4993935;28;20407;-90
2023/12/09 05:55:39;;;;;;;17.05;3.90;;;6.60;99.90;;;;;;4996603;28;20401;-89
2023/12/09 05:58:05;;;;;;;22.30;4.35;;;6.60;99.90;;;;;;4996180;28;20049;-89
2023/12/09 06:00:31;;;;;;;14.90;4.40;;;6.60;99.90;;;;;;4996163;28;20028;-90
2023/12/09 06:02:57;;;;;;;14.82;4.40;;;6.60;99.90;;;;;;4996151;28;20084;-89
2023/12/09 06:05:23;;;;;;;11.85;4.07;;;6.60;99.90;;;;;;4996127;28;20113;-90
2023/12/09 06:07:49;;;;;;;12.20;3.75;;;6.60;99.90;;;;;;4996099;28;20034;-91
2023/12/09 06:10:15;;;;;;;10.18;3.47;;;6.60;99.90;;;;;;4996577;28;20506;-90
2023/12/09 06:12:41;;;;;;;5.60;2.80;;;6.50;99.90;;;;;;4996912;28;20038;-89
2023/12/09 06:15:07;;;;;;;8.18;3.35;;;6.60;99.90;;;;;;4997538;28;20152;-92
2023/12/09 06:17:33;;;;;;;8.98;2.97;;;6.50;99.90;;;;;;4998176;28;20019;-92
2023/12/09 06:19:58;;;;;;;11.93;3.22;;;6.50;99.90;;;;;;5010996;28;20050;-92
2023/12/09 06:22:24;;;;;;;6.75;2.78;;;6.50;99.90;;;;;;5012521;28;20038;-93
2023/12/09 06:24:51;;;;;;;8.93;3.08;;;6.50;99.90;;;;;;5004222;28;20034;-94
2023/12/09 06:27:17;;;;;;;11.98;2.92;;;6.50;99.90;;;;;;4996978;28;20534;-94
2023/12/09 06:29:46;;;;;;;9.70;2.40;;;6.50;99.90;;;;;;4996460;28;20037;-94
2023/12/09 06:32:18;;;;;;;6.55;2.08;;;6.50;99.90;;;;;;4996743;28;20353;-93
2023/12/09 06:34:43;;;;;;;4.18;1.90;;;6.50;99.90;;;;;;4996621;28;20654;-93
2023/12/09 06:37:09;;;;;;;7.07;1.90;;;6.50;99.90;;;;;;4996838;28;20085;-92
2023/12/09 06:39:35;;;;;;;10.55;2.58;;;6.50;99.90;;;;;;5000526;28;20037;-92
2023/12/09 06:42:01;;;;;;;7.35;1.58;;;6.50;99.90;;;;;;4996916;28;20053;-93
2023/12/09 06:44:27;;;;;;;8.80;1.73;;;6.50;99.90;;;;;;4997359;28;20041;-94
2023/12/09 06:46:52;;;;;;;5.72;1.55;;;6.50;99.90;;;;;;4996480;28;20026;-94
2023/12/09 06:49:18;;;;;;;7.28;1.60;;;6.50;99.90;;;;;;4996448;28;20026;-93
2023/12/09 06:51:45;;;;;;;4.60;1.50;;;6.60;99.90;;;;;;4996029;28;20022;-93
2023/12/09 06:54:11;;;;;;;7.13;1.75;;;6.60;99.90;;;;;;4995841;28;20038;-93
2023/12/09 06:56:37;;;;;;;4.20;1.90;;;6.60;99.90;;;;;;4996268;28;20122;-94
2023/12/09 06:59:03;;;;;;;10.10;2.33;;;6.60;99.90;;;;;;4996921;28;20061;-92
2023/12/09 07:01:29;;;;;;;6.13;1.83;;;6.60;99.90;;;;;;4980097;28;20028;-94
2023/12/09 07:03:55;;;;;;;3.50;1.45;;;6.60;99.90;;;;;;4996023;28;20405;-92
2023/12/09 07:06:22;;;;;;;4.47;1.50;;;6.70;99.90;;;;;;4996064;28;20030;-93
2023/12/09 07:08:48;;;;;;;4.47;1.73;;;6.70;99.90;;;;;;4995702;28;20077;-93
2023/12/09 07:11:16;;;;;;;3.05;1.52;;;6.60;99.90;;;;;;4996149;28;20026;-91
2023/12/09 07:13:41;;;;;;;3.70;1.63;;;6.70;99.90;;;;;;4995629;28;20125;-93
2023/12/09 07:16:10;;;;;;;3.63;1.20;;;6.70;99.90;;;;;;4995688;28;20119;-93
2023/12/09 07:18:43;;;;;;;5.22;1.85;;;6.70;99.90;;;;;;4998515;28;20126;-92
2023/12/09 07:21:18;;;;;;;5.25;2.10;;;6.70;99.90;;;;;;5000687;28;20022;-93
2023/12/09 07:23:47;;;;;;;3.00;1.60;;;6.70;99.90;;;;;;4998347;28;20038;-92
2023/12/09 07:26:13;;;;;;;5.95;1.20;;;6.70;99.90;;;;;;4998154;28;20050;-93
2023/12/09 07:28:38;;;;;;;3.88;1.35;;;6.80;99.90;;;;;;4997048;28;20476;-91
2023/12/09 07:31:04;;;;;;;2.85;1.90;;;6.80;99.90;;;;;;4995731;28;20030;-92
2023/12/09 07:33:30;;;;;;;6.30;1.60;;;6.80;99.90;;;;;;4996417;28;20046;-92
2023/12/09 07:35:56;;;;;;;1.40;1.00;;;6.80;99.90;;;;;;4995302;28;20073;-91
2023/12/09 07:38:21;;;;;;;1.38;1.00;;;6.80;99.90;;;;;;4996578;28;20108;-92
2023/12/09 07:40:48;;;;;;;1.63;1.20;;;6.80;99.90;;;;;;4995661;28;20155;-92
2023/12/09 07:43:13;;;;;;;2.78;1.30;;;6.90;99.90;;;;;;4996196;28;20030;-92
2023/12/09 07:45:39;;;;;;;2.35;0.68;;;6.90;99.90;;;;;;4995438;28;20032;-93
2023/12/09 07:48:05;;;;;;;1.42;0.80;;;6.90;99.90;;;;;;4995579;28;20030;-91
2023/12/09 07:50:35;;;;;;;2.67;0.90;;;6.90;99.90;;;;;;4995066;28;20128;-93
2023/12/09 07:53:04;;;;;;;1.60;0.97;;;7.00;99.90;;;;;;4995511;28;20026;-92
2023/12/09 07:55:30;;;;;;;1.58;0.90;;;7.00;99.90;;;;;;4995975;28;20273;-93
2023/12/09 07:57:56;;;;;;;1.38;0.90;;;7.00;99.90;;;;;;4994995;28;20022;-93
2023/12/09 08:00:22;;;;;;;2.22;0.82;;;7.00;99.90;;;;;;4995292;28;20027;-94
2023/12/09 08:02:47;;;;;;;0.82;0.70;;;7.00;99.90;;;;;;4998043;28;20026;-93
2023/12/09 08:05:16;;;;;;;1.30;0.80;;;7.10;99.90;;;;;;4997812;28;20042;-93
2023/12/09 08:07:42;;;;;;;1.75;0.85;;;7.10;99.90;;;;;;4997877;28;20049;-94
2023/12/09 08:10:08;;;;;;;0.93;0.88;;;7.10;99.90;;;;;;4998535;28;20416;-93
2023/12/09 08:12:33;;;;;;;1.73;1.05;;;7.20;99.90;;;;;;5000816;28;20026;-94
2023/12/09 08:14:59;;;;;;;3.22;1.15;;;7.20;99.90;;;;;;5005202;28;20034;-95
2023/12/09 08:17:25;;;;;;;3.03;1.40;;;7.20;99.90;;;;;;5002539;28;20022;-95
2023/12/09 08:19:50;;;;;;;1.80;1.00;;;7.20;99.90;;;;;;5005768;28;20066;-94
2023/12/09 08:22:16;;;;;;;1.45;1.00;;;7.30;99.90;;;;;;5009915;28;20011;-93
2023/12/09 08:24:42;;;;;;;2.42;1.00;;;7.30;99.90;;;;;;5018280;28;20014;-90
2023/12/09 08:27:07;;;;;;;4.10;1.30;;;7.30;99.90;;;;;;5017533;28;20034;-94
2023/12/09 08:29:33;;;;;;;0.80;0.70;;;7.30;99.90;;;;;;5011248;28;20062;-95
2023/12/09 08:31:59;;;;;;;1.10;0.90;;;7.30;99.90;;;;;;5009901;28;20400;-95
2023/12/09 08:34:25;;;;;;;2.78;1.10;;;7.30;99.90;;;;;;5003249;28;20038;-95
2023/12/09 08:36:50;;;;;;;5.03;1.20;;;7.30;99.90;;;;;;5008779;28;20049;-95
2023/12/09 08:39:17;;;;;;;1.23;0.70;;;7.30;99.90;;;;;;5000321;28;20042;-94
2023/12/09 08:41:44;;;;;;;1.05;0.73;;;7.30;99.90;;;;;;4999031;28;20377;-95
2023/12/09 08:44:12;;;;;;;0.80;0.70;;;7.30;99.90;;;;;;5003522;28;20077;-93
2023/12/09 08:46:38;;;;;;;0.50;0.47;;;7.40;99.90;;;;;;5001167;28;20026;-95
2023/12/09 08:49:04;;;;;;;0.95;0.75;;;7.40;99.90;;;;;;5007720;28;20085;-93
2023/12/09 08:51:29;;;;;;;0.77;0.60;;;7.40;99.90;;;;;;5005890;28;20034;-96
2023/12/09 08:53:55;;;;;;;2.00;0.75;;;7.40;99.90;;;;;;5004516;28;20076;-94
2023/12/09 08:56:21;;;;;;;5.18;0.90;;;7.40;99.90;;;;;;5003669;28;20053;-93
2023/12/09 08:58:46;;;;;;;0.68;0.68;;;7.40;99.90;;;;;;5005106;28;20031;-95
2023/12/09 09:01:12;;;;;;;0.60;0.57;;;7.40;99.90;;;;;;5004635;28;20027;-95
2023/12/09 09:03:38;;;;;;;4.80;0.90;;;7.50;99.90;;;;;;4988615;28;20041;-91
2023/12/09 09:06:05;;;;;;;0.43;0.43;;;7.50;99.90;;;;;;5017944;28;20037;-93
2023/12/09 09:08:31;;;;;;;1.77;0.65;;;7.50;99.90;;;;;;5013925;28;20504;-95
2023/12/09 09:10:56;;;;;;;1.55;0.60;;;7.50;99.90;;;;;;5008846;28;20033;-95
2023/12/09 09:13:22;;;;;;;4.05;0.85;;;7.50;99.90;;;;;;5003700;28;20066;-94
2023/12/09 09:15:48;;;;;;;0.40;0.40;;;7.60;99.90;;;;;;4998702;28;20045;-93
2023/12/09 09:18:14;;;;;;;0.98;0.57;;;7.60;99.90;;;;;;4996893;28;20487;-94
2023/12/09 09:20:42;;;;;;;0.57;0.57;;;7.60;99.90;;;;;;4996308;28;20026;-95
2023/12/09 09:23:09;;;;;;;0.93;0.60;;;7.60;99.90;;;;;;5002737;28;20061;-94
2023/12/09 09:25:35;;;;;;;0.45;0.45;;;7.70;99.90;;;;;;5000669;28;20022;-95
2023/12/09 09:28:02;;;;;;;0.95;0.70;;;7.60;99.90;;;;;;4999000;28;20046;-96
2023/12/09 09:30:29;;;;;;;0.75;0.50;;;7.70;99.90;;;;;;5008616;28;20022;-95
2023/12/09 09:32:54;;;;;;;0.30;0.30;;;7.70;99.90;;;;;;5003888;28;20487;-94
2023/12/09 09:35:20;;;;;;;1.77;0.30;;;7.60;99.90;;;;;;5006834;28;20037;-95
2023/12/09 09:37:46;;;;;;;0.93;0.50;;;7.70;99.90;;;;;;4997613;28;20068;-93
2023/12/09 09:40:14;;;;;;;0.52;0.20;;;7.70;99.90;;;;;;4998876;28;20029;-96
2023/12/09 09:42:46;;;;;;;0.47;0.30;;;7.70;99.90;;;;;;5010905;28;20065;-95
2023/12/09 09:45:23;;;;;;;0.82;0.50;;;7.70;99.90;;;;;;4996419;28;20487;-93
2023/12/09 09:47:53;;;;;;;0.68;0.60;;;7.70;99.90;;;;;;4994992;28;20483;-94
2023/12/09 09:50:21;;;;;;;0.73;0.47;;;7.70;99.90;;;;;;4994197;28;20025;-94
2023/12/09 09:52:48;;;;;;;0.22;0.22;;;7.70;99.90;;;;;;4999288;28;20026;-95
2023/12/09 09:55:19;;;;;;;0.30;0.20;;;7.80;99.90;;;;;;5001946;28;20045;-94
2023/12/09 09:57:45;;;;;;;0.13;0.13;;;7.70;99.90;;;;;;5005316;28;20037;-95
2023/12/09 10:00:15;;;;;;;0.22;0.20;;;7.80;99.90;;;;;;4998236;28;20022;-94
2023/12/09 10:02:45;;;;;;;0.43;0.20;;;7.80;99.90;;;;;;4999861;28;20018;-95
2023/12/09 10:05:13;;;;;;;0.30;0.22;;;7.80;99.90;;;;;;5010166;28;20029;-95
2023/12/09 10:07:39;;;;;;;0.30;0.30;;;7.80;99.90;;;;;;5000440;28;20102;-94
2023/12/09 10:10:09;;;;;;;0.35;0.35;;;7.80;99.90;;;;;;5000220;28;20033;-93
2023/12/09 10:15:11;;;;;;;0.22;0.10;;;7.80;99.90;;;;;;5473382;23;20045;-92
2023/12/09 10:17:37;;;;;;;0.10;0.10;;;7.80;99.90;;;;;;5024241;28;20029;-92
2023/12/09 10:20:05;;;;;;;0.57;0.20;;;7.80;99.90;;;;;;5037820;28;20021;-94
2023/12/09 10:22:36;;;;;;;0.10;0.10;;;7.90;99.90;;;;;;5018190;28;20028;-93
2023/12/09 10:25:02;;;;;;;;;;;7.90;99.90;;;;;;5016141;28;20026;-90
2023/12/09 10:27:30;;;;;;;0.17;0.10;;;8.00;99.90;;;;;;5015903;28;19905;-93
2023/12/09 10:30:03;;;;;;;0.60;0.10;;;8.00;99.90;;;;;;5016454;28;20022;-94
2023/12/09 10:32:29;;;;;;;0.10;0.10;;;8.10;99.90;;;;;;5017274;28;20479;-94
2023/12/09 10:34:55;;;;;;;0.80;0.20;;;8.10;99.90;;;;;;5018007;28;20048;-94
2023/12/09 10:37:21;;;;;;;0.75;0.20;;;8.20;99.90;;;;;;5016712;28;20029;-95
2023/12/09 10:39:53;;;;;;;0.15;0.15;;;8.20;99.90;;;;;;5021302;28;20021;-94
2023/12/09 10:42:19;;;;;;;0.15;0.10;;;8.20;99.90;;;;;;5025468;28;20035;-94
2023/12/09 10:44:45;;;;;;;0.28;0.28;;;8.30;99.90;;;;;;5028559;28;20030;-94
2023/12/09 10:47:11;;;;;;;0.30;0.30;;;8.30;99.90;;;;;;5027138;28;20030;-95
2023/12/09 10:49:39;;;;;;;0.70;0.35;;;8.40;99.90;;;;;;5025990;28;20022;-96
2023/12/09 10:52:08;;;;;;;0.20;0.20;;;8.40;99.90;;;;;;5024469;28;20037;-94
2023/12/09 10:54:40;;;;;;;0.50;0.50;;;8.50;99.90;;;;;;5022977;28;20029;-94
2023/12/09 10:57:07;;;;;;;0.30;0.30;;;8.50;99.90;;;;;;5015360;28;20073;-94
2023/12/09 10:59:34;;;;;;;0.55;0.30;;;8.60;99.90;;;;;;5000187;28;20029;-94
2023/12/09 11:02:01;;;;;;;0.30;0.30;;;8.60;99.90;;;;;;4999880;28;20042;-94
2023/12/09 11:04:27;;;;;;;0.20;0.20;;;8.70;99.90;;;;;;4999890;28;20042;-94
2023/12/09 11:06:58;;;;;;;0.30;0.30;;;8.70;99.90;;;;;;4998692;28;20025;-93
2023/12/09 11:09:32;;;;;;;1.08;0.25;;;8.80;99.90;;;;;;5000188;28;20030;-94
2023/12/09 11:12:03;;;;;;;0.75;0.47;;;8.80;99.90;;;;;;5000481;28;20026;-96
2023/12/09 11:14:49;;;;;;;0.50;0.50;;;9.00;99.90;;;;;;5016398;28;20100;-94
2023/12/09 11:17:40;;;;;;;0.60;0.40;;;9.20;99.90;;;;;;5003866;28;20041;-96
2023/12/09 11:20:14;;;;;;;0.43;0.43;;;9.30;99.90;;;;;;5004509;28;20022;-95
2023/12/09 11:22:45;;;;;;;0.47;0.47;;;9.40;99.90;;;;;;5001733;28;20399;-95
2023/12/09 11:25:18;;;;;;;;;;;9.60;99.90;;;;;;5001899;28;20038;-94
2023/12/09 11:27:45;;;;;;;0.68;0.68;;;9.70;99.90;;;;;;5000288;28;19927;-94
2023/12/09 11:30:39;;;;;;;0.50;0.50;;;9.90;99.90;;;;;;5000126;28;20030;-96
2023/12/09 11:33:05;;;;;;;1.38;0.70;;;10.00;99.90;;;;;;5000162;28;20084;-95
2023/12/09 11:35:41;;;;;;;1.35;1.20;;;10.20;99.90;;;;;;5000604;28;20034;-95
2023/12/09 11:38:11;;;;;;;0.75;0.75;;;10.40;99.90;;;;;;5000543;28;20029;-95
2023/12/09 11:40:44;;;;;;;0.60;0.60;;;10.50;99.90;;;;;;5002031;28;20029;-95
2023/12/09 11:43:11;;;;;;;1.17;0.88;;;10.50;99.90;;;;;;5008414;28;20064;-94
2023/12/09 11:45:37;;;;;;;0.50;0.50;;;10.60;99.90;;;;;;5021215;28;20030;-94
2023/12/09 11:48:13;;;;;;;1.33;1.23;;;10.60;99.90;;;;;;5022614;28;20037;-95
2023/12/09 11:51:08;;;;;;;;;;;;;;;;;;;;;
2023/12/09 11:54:29;;;;;;;2.47;0.75;;;10.60;99.90;;;;;;5000182;28;20137;-96
2023/12/09 11:56:57;;;;;;;1.13;0.80;;;10.60;99.90;;;;;;5008993;28;20022;-94
2023/12/09 11:59:23;;;;;;;0.90;0.88;;;10.60;99.90;;;;;;5021871;28;20489;-95
2023/12/09 12:01:52;;;;;;;1.15;0.90;;;10.60;99.90;;;;;;5014701;28;20045;-95
2023/12/09 12:04:18;;;;;;;1.85;1.33;;;10.60;99.90;;;;;;5008835;28;20030;-95
2023/12/09 12:06:46;;;;;;;0.70;0.70;;;10.70;99.90;;;;;;5000335;28;20031;-96
2023/12/09 12:09:19;;;;;;;1.52;0.73;;;10.70;99.90;;;;;;5001964;28;20038;-96
2023/12/09 12:11:44;;;;;;;1.35;0.85;;;10.80;99.90;;;;;;4990093;28;20030;-95
2023/12/09 12:14:39;;;;;;;0.60;0.50;;;10.80;99.90;;;;;;5009479;28;20073;-96
2023/12/09 12:17:33;;;;;;;1.00;0.70;;;10.80;99.90;;;;;;4990119;28;20065;-95
2023/12/09 12:20:14;;;;;;;0.30;0.30;;;10.80;99.90;;;;;;5007785;28;20042;-96
2023/12/09 12:22:46;;;;;;;1.10;0.50;;;10.80;99.90;;;;;;4984873;28;20045;-95
2023/12/09 12:25:49;;;;;;;1.55;0.32;;;10.90;99.90;;;;;;4985667;28;20049;-95
2023/12/09 12:28:15;;;;;;;1.73;0.40;;;11.00;99.90;;;;;;4978748;28;20042;-95
2023/12/09 12:31:06;;;;;;;;;;;;;;;;;;;;;
2023/12/09 12:33:52;;;;;;;;;;;;;;;;;;;;;
2023/12/09 12:43:52;;;;;;;2.95;0.45;;;11.50;99.90;;;;;;4944670;29;20045;-96
2023/12/09 12:47:06;;;;;;;;;;;;;;;;;;;;;
2023/12/09 14:28:22;;;;;;;20.40;3.83;;;9.00;99.90;;;;;;5162502;23;20297;-96
2023/12/09 14:30:48;;;;;;;35.88;4.82;;;9.00;99.90;;;;;;4994368;28;20061;-96
2023/12/09 14:33:15;;;;;;;31.25;4.65;;;8.90;99.90;;;;;;5003591;28;20022;-95
2023/12/09 14:35:49;;;;;;;26.67;4.32;;;8.80;99.90;;;;;;4998759;28;20133;-94
2023/12/09 14:38:15;;;;;;;33.25;4.82;;;8.80;99.90;;;;;;4993122;28;20127;-96
2023/12/09 14:40:46;;;;;;;28.65;5.32;;;8.70;99.90;;;;;;4995565;28;20030;-96
2023/12/09 14:43:22;;;;;;;21.27;4.13;;;8.70;99.90;;;;;;4988136;28;20022;-96
2023/12/09 14:45:57;;;;;;;25.27;4.15;;;8.60;99.90;;;;;;4999082;28;20065;-95
2023/12/09 14:48:25;;;;;;;27.50;4.20;;;8.60;99.90;;;;;;4983695;28;20038;-94